createdAt,value
2019-02-19T00:02:23.612Z,20.20
2019-02-19T00:05:28.503Z,20.20
2019-02-19T00:08:33.135Z,20.20
2019-02-19T00:11:37.528Z,20.20
2019-02-19T00:14:42.202Z,20.20
2019-02-19T00:17:47.015Z,20.20
2019-02-19T00:20:51.963Z,20.20
2019-02-19T00:23:56.816Z,20.20
2019-02-19T00:27:01.588Z,20.20
2019-02-19T00:30:06.774Z,20.20
2019-02-19T00:33:11.572Z,20.20
2019-02-19T00:36:16.508Z,20.20
2019-02-19T00:39:21.339Z,20.20
2019-02-19T00:42:25.960Z,20.20
2019-02-19T00:45:30.680Z,20.20
2019-02-19T00:48:35.638Z,20.10
2019-02-19T00:51:40.548Z,20.10
2019-02-19T00:54:45.496Z,20.10
2019-02-19T00:57:50.229Z,20.10
2019-02-19T01:00:55.048Z,20.10
2019-02-19T01:04:00.763Z,20.10
2019-02-19T01:07:06.408Z,20.10
2019-02-19T01:10:11.187Z,20.10
2019-02-19T01:13:17.013Z,20.00
2019-02-19T01:16:21.753Z,20.00
2019-02-19T01:19:26.605Z,20.10
2019-02-19T01:22:31.521Z,20.00
2019-02-19T01:25:36.453Z,20.00
2019-02-19T01:28:45.033Z,20.00
2019-02-19T01:31:49.904Z,20.00
2019-02-19T01:34:54.749Z,20.00
2019-02-19T01:37:59.574Z,20.00
2019-02-19T01:41:04.503Z,20.00
2019-02-19T01:44:09.440Z,19.90
2019-02-19T01:47:14.264Z,20.00
2019-02-19T01:50:19.073Z,19.90
2019-02-19T01:53:23.826Z,19.90
2019-02-19T01:56:28.754Z,19.90
2019-02-19T01:59:33.574Z,19.90
2019-02-19T02:02:38.405Z,19.90
2019-02-19T02:05:43.221Z,19.90
2019-02-19T02:08:47.973Z,19.90
2019-02-19T02:11:52.895Z,19.90
2019-02-19T02:14:57.641Z,19.80
2019-02-19T02:18:02.452Z,19.80
2019-02-19T02:21:07.278Z,19.90
2019-02-19T02:24:11.933Z,19.80
2019-02-19T02:27:16.752Z,19.80
2019-02-19T02:30:21.399Z,19.80
2019-02-19T02:33:27.234Z,19.80
2019-02-19T02:36:31.671Z,19.80
2019-02-19T02:39:36.381Z,19.80
2019-02-19T02:42:41.219Z,19.80
2019-02-19T02:45:52.937Z,19.80
2019-02-19T02:48:52.507Z,19.80
2019-02-19T02:51:57.230Z,19.80
2019-02-19T02:55:01.747Z,19.80
2019-02-19T02:58:06.467Z,19.80
2019-02-19T03:01:11.215Z,19.80
2019-02-19T03:04:15.943Z,19.80
2019-02-19T03:07:39.176Z,19.80
2019-02-19T03:10:43.728Z,19.80
2019-02-19T03:13:48.660Z,19.70
2019-02-19T03:16:53.471Z,19.70
2019-02-19T03:19:58.316Z,19.70
2019-02-19T03:23:03.252Z,19.70
2019-02-19T03:26:07.973Z,19.70
2019-02-19T03:29:12.903Z,19.70
2019-02-19T03:32:17.729Z,19.70
2019-02-19T03:35:22.358Z,19.70
2019-02-19T03:38:27.185Z,19.70
2019-02-19T03:41:32.034Z,19.70
2019-02-19T03:44:36.939Z,19.70
2019-02-19T03:47:41.699Z,19.70
2019-02-19T03:50:46.525Z,19.70
2019-02-19T03:53:51.339Z,19.70
2019-02-19T03:56:56.190Z,19.60
2019-02-19T04:00:01.016Z,19.60
2019-02-19T04:03:05.771Z,19.70
2019-02-19T04:06:10.454Z,20.10
2019-02-19T04:09:15.218Z,20.30
2019-02-19T04:12:20.007Z,20.50
2019-02-19T04:15:24.860Z,20.70
2019-02-19T04:18:33.426Z,20.80
2019-02-19T04:21:37.900Z,21.00
2019-02-19T04:24:44.455Z,21.10
2019-02-19T04:27:49.192Z,21.10
2019-02-19T04:30:54.900Z,21.10
2019-02-19T04:33:59.573Z,21.10
2019-02-19T04:37:05.226Z,21.20
2019-02-19T04:40:09.943Z,21.20
2019-02-19T04:43:14.876Z,21.40
2019-02-19T04:46:19.591Z,21.50
2019-02-19T04:49:24.456Z,21.60
2019-02-19T04:52:29.260Z,21.60
2019-02-19T04:55:33.984Z,21.70
2019-02-19T04:58:38.714Z,21.70
2019-02-19T05:01:43.557Z,21.70
2019-02-19T05:04:48.374Z,21.60
2019-02-19T05:07:53.113Z,21.40
2019-02-19T05:10:58.035Z,21.30
2019-02-19T05:14:02.871Z,21.30
2019-02-19T05:17:07.639Z,21.30
2019-02-19T05:20:12.428Z,21.30
2019-02-19T05:23:17.265Z,21.40
2019-02-19T05:26:21.985Z,21.50
2019-02-19T05:29:26.835Z,21.50
2019-02-19T05:32:33.798Z,21.50
2019-02-19T05:35:38.539Z,21.50
2019-02-19T05:38:43.080Z,21.50
2019-02-19T05:41:47.850Z,21.50
2019-02-19T05:44:52.548Z,21.50
2019-02-19T05:47:57.225Z,21.50
2019-02-19T05:51:02.071Z,21.50
2019-02-19T05:54:06.801Z,21.50
2019-02-19T05:57:15.064Z,21.50
2019-02-19T06:00:19.921Z,21.50
2019-02-19T06:03:24.656Z,21.50
2019-02-19T06:06:29.488Z,21.50
2019-02-19T06:09:34.438Z,21.50
2019-02-19T06:12:39.040Z,21.50
2019-02-19T06:15:44.186Z,21.50
2019-02-19T06:18:49.045Z,21.50
2019-02-19T06:21:55.321Z,21.50
2019-02-19T06:25:00.017Z,21.60
2019-02-19T06:28:04.843Z,21.60
2019-02-19T06:31:09.780Z,21.60
2019-02-19T06:34:14.503Z,21.60
2019-02-19T06:37:19.325Z,21.80
2019-02-19T06:40:28.108Z,22.00
2019-02-19T06:43:32.766Z,22.20
2019-02-19T06:46:37.449Z,22.30
2019-02-19T06:49:42.102Z,22.40
2019-02-19T06:52:46.975Z,22.50
2019-02-19T06:55:51.779Z,22.60
2019-02-19T06:58:56.729Z,22.70
2019-02-19T07:02:20.128Z,22.80
2019-02-19T07:05:25.637Z,22.90
2019-02-19T07:08:30.592Z,23.00
2019-02-19T07:11:35.292Z,23.00
2019-02-19T07:14:40.153Z,23.10
2019-02-19T07:17:44.758Z,23.20
2019-02-19T07:20:49.580Z,23.20
2019-02-19T07:24:03.888Z,23.30
2019-02-19T07:27:00.988Z,23.30
2019-02-19T07:30:06.205Z,23.40
2019-02-19T07:33:10.967Z,23.40
2019-02-19T07:36:15.768Z,23.50
2019-02-19T07:39:20.510Z,23.50
2019-02-19T07:42:25.244Z,23.50
2019-02-19T07:45:31.051Z,23.60
2019-02-19T07:48:35.718Z,23.60
2019-02-19T07:51:40.330Z,23.70
2019-02-19T07:54:45.272Z,23.70
2019-02-19T07:57:50.089Z,23.70
2019-02-19T08:00:56.630Z,23.80
2019-02-19T08:04:01.501Z,23.80
2019-02-19T08:07:06.234Z,23.80
2019-02-19T08:10:10.948Z,23.70
2019-02-19T08:13:15.667Z,23.60
2019-02-19T08:16:20.533Z,23.60
2019-02-19T08:19:25.236Z,23.70
2019-02-19T08:22:31.087Z,23.80
2019-02-19T08:25:35.935Z,23.90
2019-02-19T08:28:40.874Z,24.10
2019-02-19T08:31:45.888Z,24.10
2019-02-19T08:34:50.837Z,24.20
2019-02-19T08:37:55.454Z,24.10
2019-02-19T08:41:00.079Z,24.20
2019-02-19T08:44:04.902Z,24.40
2019-02-19T08:47:09.752Z,24.50
2019-02-19T08:50:14.682Z,24.60
2019-02-19T08:53:19.193Z,24.70
2019-02-19T08:56:23.923Z,24.70
2019-02-19T08:59:28.731Z,24.70
2019-02-19T09:02:33.487Z,24.70
2019-02-19T09:05:38.217Z,24.70
2019-02-19T09:08:42.943Z,24.60
2019-02-19T09:11:47.813Z,24.50
2019-02-19T09:14:52.601Z,24.50
2019-02-19T09:17:57.535Z,24.50
2019-02-19T09:21:02.257Z,24.40
2019-02-19T09:24:09.700Z,24.30
2019-02-19T09:27:13.561Z,24.20
2019-02-19T09:30:18.306Z,24.10
2019-02-19T09:33:23.167Z,24.10
2019-02-19T09:36:27.843Z,24.20
2019-02-19T09:42:48.161Z,24.10
2019-02-19T09:45:54.395Z,24.00
2019-02-19T09:48:59.195Z,23.90
2019-02-19T09:52:03.985Z,23.90
2019-02-19T09:55:08.938Z,23.90
2019-02-19T09:58:13.719Z,23.90
2019-02-19T10:01:18.470Z,23.80
2019-02-19T10:04:23.186Z,23.90
2019-02-19T10:07:28.042Z,23.90
2019-02-19T10:10:32.740Z,23.90
2019-02-19T10:13:37.595Z,23.90
2019-02-19T10:16:42.446Z,23.90
2019-02-19T10:19:47.144Z,23.90
2019-02-19T10:22:51.960Z,23.90
2019-02-19T10:25:56.714Z,23.90
2019-02-19T10:29:01.537Z,23.90
2019-02-19T10:32:06.386Z,23.90
2019-02-19T10:35:11.925Z,23.80
2019-02-19T10:38:16.766Z,23.80
2019-02-19T10:41:21.570Z,23.80
2019-02-19T10:44:26.286Z,23.80
2019-02-19T10:47:31.233Z,23.80
2019-02-19T10:50:38.317Z,23.70
2019-02-19T10:53:42.943Z,23.70
2019-02-19T10:56:47.756Z,23.70
2019-02-19T10:59:52.540Z,23.70
2019-02-19T11:02:57.220Z,23.70
2019-02-19T11:06:02.161Z,23.60
2019-02-19T11:09:07.389Z,23.60
2019-02-19T11:12:12.223Z,23.60
2019-02-19T11:15:17.597Z,23.60
2019-02-19T11:18:28.322Z,23.50
2019-02-19T11:21:29.024Z,23.50
2019-02-19T11:24:33.794Z,23.50
2019-02-19T11:27:38.679Z,23.50
2019-02-19T11:30:43.370Z,23.40
2019-02-19T11:33:48.189Z,23.40
2019-02-19T11:36:52.912Z,23.40
2019-02-19T11:39:57.528Z,23.40
2019-02-19T11:43:02.318Z,23.40
2019-02-19T11:46:07.206Z,23.30
2019-02-19T11:49:11.945Z,23.30
2019-02-19T11:52:16.545Z,23.30
2019-02-19T11:55:21.387Z,23.30
2019-02-19T11:58:26.213Z,23.30
2019-02-19T12:01:30.856Z,23.20
2019-02-19T12:04:35.705Z,23.20
2019-02-19T12:07:40.391Z,23.20
2019-02-19T12:10:44.851Z,23.20
2019-02-19T12:13:49.560Z,23.20
2019-02-19T12:16:54.276Z,23.10
2019-02-19T12:19:59.118Z,23.10
2019-02-19T12:23:03.949Z,23.10
2019-02-19T12:26:08.648Z,23.10
2019-02-19T12:29:13.516Z,23.10
2019-02-19T12:32:18.494Z,23.00
2019-02-19T12:35:23.254Z,23.00
2019-02-19T12:38:28.099Z,23.00
2019-02-19T12:41:32.924Z,23.00
2019-02-19T12:44:37.635Z,23.00
2019-02-19T12:47:42.476Z,23.00
2019-02-19T12:50:47.430Z,23.00
2019-02-19T12:53:52.264Z,22.90
2019-02-19T12:56:57.186Z,23.00
2019-02-19T13:00:02.159Z,22.90
2019-02-19T13:03:06.851Z,22.90
2019-02-19T13:06:11.687Z,22.90
2019-02-19T13:09:16.588Z,22.90
2019-02-19T13:12:21.327Z,22.90
2019-02-19T13:15:26.160Z,22.90
2019-02-19T13:18:30.990Z,22.90
2019-02-19T13:21:35.808Z,22.90
2019-02-19T13:24:40.668Z,22.90
2019-02-19T13:27:45.479Z,22.90
2019-02-19T13:30:50.229Z,22.90
2019-02-19T13:33:55.101Z,22.90
2019-02-19T13:37:01.540Z,22.90
2019-02-19T13:40:06.740Z,22.90
2019-02-19T13:43:11.486Z,22.90
2019-02-19T13:46:16.225Z,22.90
2019-02-19T13:49:21.026Z,22.90
2019-02-19T13:52:43.397Z,22.90
2019-02-19T13:55:50.668Z,22.90
2019-02-19T13:58:56.538Z,22.80
2019-02-19T14:02:01.146Z,22.90
2019-02-19T14:05:06.068Z,22.80
2019-02-19T14:08:14.510Z,22.80
2019-02-19T14:11:17.467Z,22.80
2019-02-19T14:14:47.257Z,22.80
2019-02-19T14:17:52.070Z,22.80
2019-02-19T14:21:16.205Z,22.80
2019-02-19T14:24:51.529Z,22.80
2019-02-19T14:28:14.930Z,22.80
2019-02-19T14:31:50.723Z,22.80
2019-02-19T14:35:23.076Z,22.80
2019-02-19T14:38:45.539Z,22.80
2019-02-19T14:42:02.669Z,22.80
2019-02-19T14:45:25.526Z,22.80
2019-02-19T14:48:53.553Z,22.80
2019-02-19T14:52:22.827Z,22.70
2019-02-19T14:55:45.457Z,22.80
2019-02-19T14:59:24.203Z,22.80
2019-02-19T15:02:47.037Z,22.80
2019-02-19T15:06:10.080Z,22.70
2019-02-19T15:09:39.329Z,22.80
2019-02-19T15:13:02.847Z,22.80
2019-02-19T15:16:32.710Z,22.70
2019-02-19T15:19:55.352Z,22.40
2019-02-19T15:23:12.743Z,22.30
2019-02-19T15:26:36.361Z,22.20
2019-02-19T15:30:01.027Z,22.00
2019-02-19T15:33:19.352Z,21.90
2019-02-19T15:37:00.278Z,21.70
2019-02-19T15:40:26.807Z,21.70
2019-02-19T15:43:36.030Z,21.70
2019-02-19T15:47:01.655Z,21.60
2019-02-19T15:50:34.302Z,21.60
2019-02-19T15:53:57.838Z,21.60
2019-02-19T15:57:30.697Z,21.50
2019-02-19T16:00:43.617Z,21.40
2019-02-19T16:03:54.207Z,21.30
2019-02-19T16:07:05.515Z,21.20
2019-02-19T16:10:21.696Z,21.20
2019-02-19T16:13:48.406Z,21.00
2019-02-19T16:17:00.927Z,20.80
2019-02-19T16:20:24.225Z,20.60
2019-02-19T16:23:47.659Z,20.50
2019-02-19T16:27:23.436Z,20.40
2019-02-19T16:30:47.394Z,20.30
2019-02-19T16:34:13.113Z,20.30
2019-02-19T16:37:36.939Z,20.10
2019-02-19T16:41:01.215Z,20.10
2019-02-19T16:44:24.199Z,19.90
2019-02-19T16:47:47.349Z,19.80
2019-02-19T16:51:27.252Z,19.80
2019-02-19T16:54:48.308Z,19.80
2019-02-19T16:57:59.273Z,19.20
2019-02-19T17:01:18.458Z,19.40
2019-02-19T17:04:51.570Z,19.40
2019-02-19T17:08:15.414Z,19.30
2019-02-19T17:11:43.341Z,19.30
2019-02-19T17:15:03.760Z,19.30
2019-02-19T17:18:26.544Z,19.30
2019-02-19T17:21:53.818Z,19.30
2019-02-19T17:25:21.612Z,19.20
2019-02-19T17:28:45.869Z,19.10
2019-02-19T17:35:25.517Z,19.20
2019-02-19T17:38:48.017Z,19.10
2019-02-19T17:42:07.129Z,19.50
2019-02-19T17:45:30.717Z,19.50
2019-02-19T17:48:57.401Z,19.50
2019-02-19T17:52:17.486Z,19.20
2019-02-19T17:55:40.195Z,19.40
2019-02-19T17:58:57.634Z,20.10
2019-02-19T18:02:19.656Z,20.40
2019-02-19T18:05:43.828Z,20.60
2019-02-19T18:09:10.773Z,20.80
2019-02-19T18:12:33.250Z,20.90
2019-02-19T18:16:01.052Z,21.10
2019-02-19T18:19:06.104Z,21.10
2019-02-19T18:22:12.830Z,21.20
2019-02-19T18:25:17.396Z,21.20
2019-02-19T18:28:23.231Z,21.20
2019-02-19T18:31:27.965Z,21.30
2019-02-19T18:34:32.797Z,21.30
2019-02-19T18:37:37.633Z,21.30
2019-02-19T18:40:42.458Z,21.30
2019-02-19T18:43:46.976Z,21.30
2019-02-19T18:46:52.833Z,21.40
2019-02-19T18:49:57.569Z,21.40
2019-02-19T18:53:02.407Z,21.50
2019-02-19T18:56:09.157Z,21.50
2019-02-19T18:59:13.698Z,21.50
2019-02-19T19:02:18.438Z,21.50
2019-02-19T19:05:23.385Z,21.50
2019-02-19T19:08:28.289Z,21.50
2019-02-19T19:11:37.519Z,21.50
2019-02-19T19:14:39.477Z,21.50
2019-02-19T19:17:45.732Z,21.50
2019-02-19T19:20:50.583Z,21.50
2019-02-19T19:23:55.395Z,21.50
2019-02-19T19:27:00.220Z,21.50
2019-02-19T19:30:05.155Z,21.50
2019-02-19T19:33:10.016Z,21.50
2019-02-19T19:36:14.832Z,21.50
2019-02-19T19:39:20.019Z,21.50
2019-02-19T19:42:24.913Z,21.50
2019-02-19T19:45:29.632Z,21.50
2019-02-19T19:48:34.536Z,21.60
2019-02-19T19:51:39.298Z,21.60
2019-02-19T19:54:44.059Z,21.70
2019-02-19T19:57:48.978Z,21.70
2019-02-19T20:00:53.891Z,21.80
2019-02-19T20:03:58.814Z,21.80
2019-02-19T20:07:03.481Z,21.90
2019-02-19T20:10:08.889Z,21.80
2019-02-19T20:13:13.623Z,21.80
2019-02-19T20:16:18.357Z,21.80
2019-02-19T20:19:23.073Z,21.80
2019-02-19T20:22:27.620Z,21.80
2019-02-19T20:25:32.536Z,21.70
2019-02-19T20:28:37.357Z,21.70
2019-02-19T20:31:42.281Z,21.70
2019-02-19T20:34:47.135Z,21.70
2019-02-19T20:37:54.018Z,21.70
2019-02-19T20:40:58.330Z,21.80
2019-02-19T20:44:03.256Z,21.80
2019-02-19T20:47:08.093Z,21.80
2019-02-19T20:50:12.892Z,21.80
2019-02-19T20:53:17.649Z,21.80
2019-02-19T20:56:22.583Z,21.80
2019-02-19T20:59:27.516Z,21.80
2019-02-19T21:02:32.335Z,21.80
2019-02-19T21:05:37.267Z,21.80
2019-02-19T21:08:41.892Z,21.80
2019-02-19T21:11:46.839Z,21.80
2019-02-19T21:14:51.766Z,21.70
2019-02-19T21:17:56.602Z,21.70
2019-02-19T21:21:01.556Z,21.70
2019-02-19T21:24:06.368Z,21.60
2019-02-19T21:27:11.172Z,21.60
2019-02-19T21:30:16.022Z,21.60
2019-02-19T21:33:20.845Z,21.60
2019-02-19T21:36:25.684Z,21.60
2019-02-19T21:39:30.610Z,21.60
2019-02-19T21:42:35.451Z,21.60
2019-02-19T21:45:40.279Z,21.50
2019-02-19T21:48:48.102Z,21.50
2019-02-19T21:51:54.187Z,21.50
2019-02-19T21:54:58.235Z,21.50
2019-02-19T21:58:03.277Z,21.50
2019-02-19T22:01:08.237Z,21.50
2019-02-19T22:04:12.920Z,21.50
2019-02-19T22:07:17.554Z,21.40
2019-02-19T22:10:22.401Z,21.40
2019-02-19T22:13:27.376Z,21.40
2019-02-19T22:16:32.145Z,21.40
2019-02-19T22:19:36.884Z,21.40
2019-02-19T22:22:41.722Z,21.40
2019-02-19T22:25:46.439Z,21.40
2019-02-19T22:28:51.255Z,21.30
2019-02-19T22:31:56.101Z,21.30
2019-02-19T22:35:00.944Z,21.30
2019-02-19T22:38:06.767Z,21.30
2019-02-19T22:41:12.987Z,21.30
2019-02-19T22:44:17.757Z,21.30
2019-02-19T22:47:22.313Z,21.30
2019-02-19T22:50:29.673Z,21.30
2019-02-19T22:53:55.962Z,21.30
2019-02-19T22:57:00.934Z,21.30
2019-02-19T23:00:08.471Z,21.30
2019-02-19T23:03:13.152Z,21.30
2019-02-19T23:06:18.106Z,21.30
2019-02-19T23:09:23.042Z,21.20
2019-02-19T23:12:27.855Z,21.20
2019-02-19T23:15:32.702Z,21.20
2019-02-19T23:18:37.517Z,21.20
2019-02-19T23:21:42.150Z,21.20
2019-02-19T23:24:50.267Z,21.20
2019-02-19T23:27:53.436Z,21.20
2019-02-19T23:30:57.877Z,21.20
2019-02-19T23:34:02.897Z,21.20
2019-02-19T23:37:13.695Z,21.20
2019-02-19T23:40:18.554Z,21.10
2019-02-19T23:43:23.320Z,21.10
2019-02-19T23:46:27.983Z,21.10
2019-02-19T23:49:32.798Z,21.10
2019-02-19T23:52:38.517Z,21.10
2019-02-19T23:55:43.047Z,21.10
2019-02-19T23:58:47.992Z,21.10
